| Date | Time | Temp. (oF) | Dew Point (oF) | Rel. Hum. (%) | Press. (in.) | Wind Dir. | Wind Speed (mph) | Hourly Rainfall (in.) |
|
|---|---|---|---|---|---|---|---|---|---|
| 1 | 10/29 | 00:00 | 36 | 29 | 77 | 30.26 | WSW | 0 | 0.00 |
| 2 | 10/28 | 23:00 | 37 | 29 | 74 | 30.26 | W | 0 | 0.00 |
| 3 | 10/28 | 22:00 | 39 | 30 | 70 | 30.26 | WSW | 0 | 0.00 |
| 4 | 10/28 | 21:00 | 42 | 29 | 61 | 30.25 | W | 0 | 0.00 |
| 5 | 10/28 | 20:00 | 45 | 27 | 51 | 30.24 | SSW | 0 | 0.00 |
| 6 | 10/28 | 19:00 | 49 | 27 | 44 | 30.22 | SSE | 0 | 0.00 |
| 7 | 10/28 | 18:00 | 54 | 27 | 36 | 30.19 | SSE | 2 | 0.00 |
| 8 | 10/28 | 17:00 | 56 | 27 | 33 | 30.19 | W | 5 | 0.00 |
| 9 | 10/28 | 16:00 | 56 | 25 | 31 | 30.18 | SSE | 9 | 0.00 |
| 10 | 10/28 | 15:00 | 56 | 27 | 34 | 30.19 | WNW | 6 | 0.00 |
| 11 | 10/28 | 14:00 | 54 | 28 | 37 | 30.21 | SSE | 7 | 0.00 |
| 12 | 10/28 | 13:00 | 53 | 28 | 39 | 30.24 | W | 12 | 0.00 |
| 13 | 10/28 | 12:00 | 50 | 30 | 47 | 30.26 | WNW | 13 | 0.00 |
| 14 | 10/28 | 11:00 | 50 | 30 | 47 | 30.26 | WNW | 25 | 0.00 |
| 15 | 10/28 | 10:00 | 48 | 31 | 52 | 30.26 | SSE | 13 | 0.00 |
| 16 | 10/28 | 09:00 | 46 | 32 | 58 | 30.25 | WNW | 9 | 0.00 |
| 17 | 10/28 | 08:00 | 44 | 35 | 71 | 30.21 | SSE | 4 | 0.00 |
| 18 | 10/28 | 07:00 | 44 | 37 | 77 | 30.20 | WNW | 6 | 0.00 |
| 19 | 10/28 | 06:00 | 45 | 38 | 79 | 30.17 | SSE | 4 | 0.00 |
| 20 | 10/28 | 05:00 | 47 | 41 | 80 | 30.14 | WNW | 8 | 0.00 |
| 21 | 10/28 | 04:00 | 47 | 41 | 82 | 30.13 | WNW | 2 | 0.00 |
| 22 | 10/28 | 03:00 | 46 | 42 | 88 | 30.13 | WNW | 1 | 0.00 |
| 23 | 10/28 | 02:00 | 46 | 43 | 91 | 30.11 | WNW | 2 | 0.00 |
| 24 | 10/28 | 01:00 | 47 | 44 | 91 | 30.11 | WNW | 4 | 0.00 |